LOWI/INN METAR and TAF weather

Enter ICAO airport designator
Station Type Date Time Source
LOWI METAR 2021/07/29 19:20 UTC NOAA

LOWI 291920Z VRB02KT 9999 FEW050 BKN100 23/16 Q1015 NOSIG


Station Type Date Time Source
LOWI Decoded METAR 2021/07/29 19:20 UTC NOAA

Innsbruck-Flughafen, Austria (LOWI) 47-16N 011-21E 593M
Jul 29, 2021 - 03:20 PM EDT / 2021.07.29 1920 UTC
Wind: Variable at 2 MPH (2 KT):0
Visibility: greater than 7 mile(s):0
Sky conditions: mostly cloudy
Temperature: 73 F (23 C)
Dew Point: 60 F (16 C)
Relative Humidity: 64%
Pressure (altimeter): 29.97 in. Hg (1015 hPa)
ob: LOWI 291920Z VRB02KT 9999 FEW050 BKN100 23/16 Q1015 NOSIG
cycle: 19

Station Type Date Time Source
LOWI TAF 2021/07/29 18:21 UTC NOAA

TAF LOWI 291715Z 2918/3018 VRB02KT CAVOK TX27/3014Z TN15/3004Z
BECMG 3009/3011 09009KT 9999 FEW070TCU
TEMPO 3014/3018 VRB15G25KT TS SCT060CB

Example: see airport list